KSEG/SEG METAR and TAF weather

Enter ICAO airport designator
Station Type Date Time Source
KSEG METAR 2019/04/22 19:53 UTC NOAA

KSEG 221953Z AUTO 02008KT 340V050 10SM CLR 21/07 A3008 RMK AO2 SLP186 T02060072


Station Type Date Time Source
KSEG Decoded METAR 2019/04/22 19:53 UTC NOAA

SELINSGROVE PENN VALLEY AIRPORT , PA, United States (KSEG) 40-49N 076-52W 134M
Apr 22, 2019 - 03:53 PM EDT / 2019.04.22 1953 UTC
Wind: from the NNE (020 degrees) at 9 MPH (8 KT) (direction variable):0
Visibility: 10 mile(s):0
Sky conditions: clear
Temperature: 69.1 F (20.6 C)
Dew Point: 45.0 F (7.2 C)
Relative Humidity: 41%
Pressure (altimeter): 30.08 in. Hg (1018 hPa)
ob: KSEG 221953Z AUTO 02008KT 340V050 10SM CLR 21/07 A3008 RMK AO2 SLP186 T02060072
cycle: 20

Station Type Date Time Source
KSEG TAF UTC NOAA

Error!

Example: see airport list